Smit Clyde — CFG7577 — position and weather

sailwx.info

Track history (hours):
 
Tides and Currents Weather Stations Pressure Air Temp Water Temp Dewpoint Dewpoint Depression Visibility Wind Speed Wind Dir Waves Ship Positions

Smit Clyde

Last reported at 2014-Nov-27 09:33 UTC. Time now 2014-Nov-27 17:14 UTC.
Position N 54°18' W 130°21'.

Length 28 m; draft 6 m.

Type: Towing. MMSI: 316011473.

Date/timePositionNaut miles runAvg speedWind from/ knotsBaromVisibWave heightAir tempDewpointWater temp
2014-Nov-27 09:33N 54°18' W 130°21'0 0.0
2014-Nov-27 08:33N 54°18' W 130°21'0 0.4
2014-Nov-27 07:33N 54°17' W 130°22'0 0.4
2014-Nov-27 06:33N 54°18' W 130°21'0 0.0
2014-Nov-27 00:18N 54°18' W 130°21'0 0.0
2014-Nov-26 23:33N 54°18' W 130°21'0 0.0
2014-Nov-26 22:33N 54°18' W 130°21'4 0.2
2014-Nov-26 03:06N 54°14' W 130°21'4 7.1
2014-Nov-26 02:34N 54°18' W 130°21'0 0.0
2014-Nov-26 01:33N 54°18' W 130°21'0 0.0
2014-Nov-26 00:34N 54°18' W 130°21'0 0.0
2014-Nov-25 23:33N 54°18' W 130°21'2 1.6
2014-Nov-25 22:34N 54°16' W 130°22'1 1.2
2014-Nov-25 21:33N 54°17' W 130°22'0 0.4
2014-Nov-25 20:33N 54°18' W 130°21'0 0.0
2014-Nov-25 19:33N 54°18' W 130°21'0 0.0
2014-Nov-25 18:33N 54°18' W 130°21'0 0.0
2014-Nov-25 17:34N 54°18' W 130°21'0 0.0
2014-Nov-25 16:33N 54°18' W 130°21'0 0.0
2014-Nov-25 15:33N 54°18' W 130°21'0 0.0
2014-Nov-25 14:33N 54°18' W 130°21'0 0.0
2014-Nov-25 13:34N 54°18' W 130°21'0 0.0
2014-Nov-25 12:33N 54°18' W 130°21'0 0.0
2014-Nov-25 11:34N 54°18' W 130°21'0 0.0
2014-Nov-25 10:34N 54°18' W 130°21'0 0.0
2014-Nov-25 09:33N 54°18' W 130°21'0 0.0
2014-Nov-25 08:34N 54°18' W 130°21'0 0.0
2014-Nov-25 07:34N 54°18' W 130°21'0 0.0
2014-Nov-25 06:34N 54°18' W 130°21'0 0.0
2014-Nov-25 05:33N 54°18' W 130°21'0 0.0
2014-Nov-25 04:33N 54°18' W 130°21'1 0.6
2014-Nov-25 03:34N 54°17' W 130°22'4 2.1
2014-Nov-25 01:33N 54°13' W 130°21'5 4.8
2014-Nov-25 00:33N 54°18' W 130°21'0 0.2
2014-Nov-24 23:33N 54°18' W 130°21'0 0.0
2014-Nov-24 22:34N 54°18' W 130°21'0 0.0
2014-Nov-24 21:34N 54°18' W 130°21'0 0.0
2014-Nov-24 20:33N 54°18' W 130°21'0 0.0
2014-Nov-24 19:34N 54°18' W 130°21'0 0.0
2014-Nov-24 18:33N 54°18' W 130°21'0 0.0
2014-Nov-24 17:33N 54°18' W 130°21'0 0.0
2014-Nov-24 16:34N 54°18' W 130°21'0 0.0
2014-Nov-24 15:33N 54°18' W 130°21'0 0.0
2014-Nov-24 14:33N 54°18' W 130°21'0 0.0
2014-Nov-24 13:33N 54°18' W 130°21'0 0.0
2014-Nov-24 12:33N 54°18' W 130°21'0 0.0
2014-Nov-24 11:34N 54°18' W 130°21'0 0.0
2014-Nov-24 10:33N 54°18' W 130°21'0 0.0
2014-Nov-24 09:33N 54°18' W 130°21'0 0.0
2014-Nov-24 08:33N 54°18' W 130°21'0 0.0
2014-Nov-24 07:33N 54°18' W 130°21'0 0.0
2014-Nov-24 06:33N 54°18' W 130°21'0 0.0
2014-Nov-24 05:33N 54°18' W 130°21'0 0.0
2014-Nov-24 04:34N 54°18' W 130°21'0 0.0
2014-Nov-24 03:33N 54°18' W 130°21'0 0.0
2014-Nov-24 02:33N 54°18' W 130°21'0 0.0
2014-Nov-24 01:34N 54°18' W 130°21'0 0.0
2014-Nov-24 00:33N 54°18' W 130°21'0 0.0
2014-Nov-23 23:33N 54°18' W 130°21'0 0.0
2014-Nov-23 22:34N 54°18' W 130°21'0 0.0
2014-Nov-23 21:34N 54°18' W 130°21'0 0.0
2014-Nov-23 20:34N 54°18' W 130°21'0 0.0
2014-Nov-23 19:33N 54°18' W 130°21'0 0.0
2014-Nov-23 18:34N 54°18' W 130°21'0 0.0
2014-Nov-23 17:34N 54°18' W 130°21'0 0.0
2014-Nov-23 16:34N 54°18' W 130°21'0 0.0
2014-Nov-23 15:33N 54°18' W 130°21'0 0.0
2014-Nov-23 14:33N 54°18' W 130°21'0 0.0
2014-Nov-23 13:34N 54°18' W 130°21'0 0.0
2014-Nov-23 12:33N 54°18' W 130°21'0 0.0
2014-Nov-23 11:34N 54°18' W 130°21'0 0.0
2014-Nov-23 10:34N 54°18' W 130°21'0 0.0
2014-Nov-23 09:34N 54°18' W 130°21'0 0.0
2014-Nov-23 08:33N 54°18' W 130°21'0 0.0
2014-Nov-23 07:34N 54°18' W 130°21'0 0.0
2014-Nov-23 06:34N 54°18' W 130°21'0 0.0
2014-Nov-23 05:34N 54°18' W 130°21'0 0.0
2014-Nov-23 04:33N 54°18' W 130°21'0 0.0
2014-Nov-23 03:34N 54°18' W 130°21'0 0.0
2014-Nov-23 02:34N 54°18' W 130°21'0 0.0
2014-Nov-23 01:34N 54°18' W 130°21'0 0.0
2014-Nov-23 00:33N 54°18' W 130°21'0 0.0
2014-Nov-22 23:33N 54°18' W 130°21'0 0.0
2014-Nov-22 22:33N 54°18' W 130°21'0 0.0
2014-Nov-22 21:34N 54°18' W 130°21'0 0.0
2014-Nov-22 20:33N 54°18' W 130°21'0 0.0
2014-Nov-22 19:34N 54°18' W 130°21'0 0.0
2014-Nov-22 18:33N 54°18' W 130°21'0 0.0
2014-Nov-22 17:33N 54°18' W 130°21'0 0.0
2014-Nov-22 04:10N 54°18' W 130°21'0 0.0
2014-Nov-22 03:34N 54°18' W 130°21'0 0.0
2014-Nov-22 02:34N 54°18' W 130°21'0 0.0
2014-Nov-22 01:34N 54°18' W 130°21'0 0.0
2014-Nov-22 00:34N 54°18' W 130°21'0 0.0
2014-Nov-21 23:33N 54°18' W 130°21'0 0.0
2014-Nov-21 22:33N 54°18' W 130°21'5 2.0
2014-Nov-21 20:13N 54°13' W 130°23'1 0.6
2014-Nov-21 19:23N 54°13' W 130°22'3 3.6
2014-Nov-21 18:33N 54°16' W 130°22'2 1.7
2014-Nov-21 17:33N 54°18' W 130°21'0 0.0
2014-Nov-21 09:34N 54°18' W 130°21'0 0.0
2014-Nov-21 08:33N 54°18' W 130°21'0 0.0
2014-Nov-21 07:33N 54°18' W 130°21'0 0.0
2014-Nov-21 06:34N 54°18' W 130°21'0 0.0
2014-Nov-21 05:33N 54°18' W 130°21'0 0.0
2014-Nov-21 04:34N 54°18' W 130°21'0 0.0
2014-Nov-21 03:34N 54°18' W 130°21'0 0.0
2014-Nov-21 02:33N 54°18' W 130°21'0 0.0
2014-Nov-21 01:34N 54°18' W 130°21'0 0.0
2014-Nov-21 00:33N 54°18' W 130°21'0 0.0
2014-Nov-20 23:33N 54°18' W 130°21'0 0.0
2014-Nov-20 22:34N 54°18' W 130°21'0 0.0
2014-Nov-20 20:04N 54°18' W 130°21'0 0.0
2014-Nov-20 19:33N 54°18' W 130°21'0 0.0
2014-Nov-20 18:33N 54°18' W 130°21'0 0.0
2014-Nov-20 17:34N 54°18' W 130°21'0 0.0
2014-Nov-20 16:34N 54°18' W 130°21'0 0.0
2014-Nov-20 15:34N 54°18' W 130°21'0 0.0
2014-Nov-20 14:34N 54°18' W 130°21'0 0.0
2014-Nov-20 13:34N 54°18' W 130°21'0 0.0
2014-Nov-20 12:34N 54°18' W 130°21'0 0.0
2014-Nov-20 11:34N 54°18' W 130°21'0 0.0
2014-Nov-20 10:33N 54°18' W 130°21'0 0.0
2014-Nov-20 09:33N 54°18' W 130°21'0 0.0
2014-Nov-20 08:34N 54°18' W 130°21'0 0.0
2014-Nov-20 07:34N 54°18' W 130°21'0 0.0
2014-Nov-20 06:33N 54°18' W 130°21'0 0.0
2014-Nov-20 05:33N 54°18' W 130°21'0 0.0
2014-Nov-20 04:34N 54°18' W 130°21'0 0.0
2014-Nov-20 03:34N 54°18' W 130°21'0 0.0
2014-Nov-20 02:33N 54°18' W 130°21'0 0.0
2014-Nov-20 01:34N 54°18' W 130°21'0 0.0
2014-Nov-20 00:34N 54°18' W 130°21'0 0.0
2014-Nov-19 23:33N 54°18' W 130°21'0 0.0
2014-Nov-19 22:34N 54°18' W 130°21'0 0.0
2014-Nov-19 21:33N 54°18' W 130°21'0 0.0
2014-Nov-19 20:33N 54°18' W 130°21'0 0.0
2014-Nov-19 19:33N 54°18' W 130°21'0 0.0
2014-Nov-19 18:33N 54°18' W 130°21'0 0.0
2014-Nov-19 17:34N 54°18' W 130°21'0 0.0
2014-Nov-19 16:34N 54°18' W 130°21'0 0.0
2014-Nov-19 02:34N 54°18' W 130°21'0 0.0
2014-Nov-19 01:34N 54°18' W 130°21'0 0.0
2014-Nov-19 00:33N 54°18' W 130°21'0 0.0
2014-Nov-18 23:33N 54°18' W 130°21'0 0.0
2014-Nov-18 22:34N 54°18' W 130°21'0 0.0
2014-Nov-18 21:33N 54°18' W 130°21'0 0.0
2014-Nov-18 20:33N 54°18' W 130°21'0 0.0
2014-Nov-18 19:34N 54°18' W 130°21'0 0.0
2014-Nov-18 18:33N 54°18' W 130°21'0 0.0
2014-Nov-18 17:34N 54°18' W 130°21'0 0.0
2014-Nov-18 16:34N 54°18' W 130°21'0 0.0
2014-Nov-18 15:34N 54°18' W 130°21'0 0.0
2014-Nov-18 09:33N 54°18' W 130°21'0 0.0
2014-Nov-18 08:33N 54°18' W 130°21'0 0.0
2014-Nov-18 07:33N 54°18' W 130°21'0 0.0
2014-Nov-18 06:33N 54°18' W 130°21'0 0.0
2014-Nov-18 05:33N 54°18' W 130°21'0 0.0
2014-Nov-18 04:33N 54°18' W 130°21'0 0.0
2014-Nov-18 03:34N 54°18' W 130°21'0 0.0
2014-Nov-18 02:34N 54°18' W 130°21'0 0.0
2014-Nov-18 01:33N 54°18' W 130°21'0 0.0
2014-Nov-17 21:34N 54°18' W 130°21'0 0.0
2014-Nov-17 20:34N 54°18' W 130°21'0 0.0
2014-Nov-17 19:34N 54°18' W 130°21'0 0.0
2014-Nov-17 18:33N 54°18' W 130°21'0 0.0
2014-Nov-17 17:34N 54°18' W 130°21'0 0.0
2014-Nov-17 16:33N 54°18' W 130°21'0 0.0
2014-Nov-17 15:34N 54°18' W 130°21'0 0.0
2014-Nov-17 14:33N 54°18' W 130°21'0 0.0
2014-Nov-17 13:34N 54°18' W 130°21'0 0.0
2014-Nov-17 12:33N 54°18' W 130°21'0 0.0
2014-Nov-17 11:33N 54°18' W 130°21'0 0.0
2014-Nov-17 10:34N 54°18' W 130°21'0 0.0
2014-Nov-17 09:33N 54°18' W 130°21'  
Track history (hours):
 
Tides and Currents Weather Stations Pressure Air Temp Water Temp Dewpoint Dewpoint Depression Visibility Wind Speed Wind Dir Waves Ship Positions

Smit Clyde

Last reported at 2014-Nov-27 09:33 UTC. Time now 2014-Nov-27 17:14 UTC.
Position N 54°18' W 130°21'.

Length 28 m; draft 6 m.

Type: Towing. MMSI: 316011473.

Date/timePositionNaut miles runAvg speedWind from/ knotsBaromVisibWave heightAir tempDewpointWater temp
2014-Nov-27 09:33N 54°18' W 130°21'0 0.0
2014-Nov-27 08:33N 54°18' W 130°21'0 0.4
2014-Nov-27 07:33N 54°17' W 130°22'0 0.4
2014-Nov-27 06:33N 54°18' W 130°21'0 0.0
2014-Nov-27 00:18N 54°18' W 130°21'0 0.0
2014-Nov-26 23:33N 54°18' W 130°21'0 0.0
2014-Nov-26 22:33N 54°18' W 130°21'4 0.2
2014-Nov-26 03:06N 54°14' W 130°21'4 7.1
2014-Nov-26 02:34N 54°18' W 130°21'0 0.0
2014-Nov-26 01:33N 54°18' W 130°21'0 0.0
2014-Nov-26 00:34N 54°18' W 130°21'0 0.0
2014-Nov-25 23:33N 54°18' W 130°21'2 1.6
2014-Nov-25 22:34N 54°16' W 130°22'1 1.2
2014-Nov-25 21:33N 54°17' W 130°22'0 0.4
2014-Nov-25 20:33N 54°18' W 130°21'0 0.0
2014-Nov-25 19:33N 54°18' W 130°21'0 0.0
2014-Nov-25 18:33N 54°18' W 130°21'0 0.0
2014-Nov-25 17:34N 54°18' W 130°21'0 0.0
2014-Nov-25 16:33N 54°18' W 130°21'0 0.0
2014-Nov-25 15:33N 54°18' W 130°21'0 0.0
2014-Nov-25 14:33N 54°18' W 130°21'0 0.0
2014-Nov-25 13:34N 54°18' W 130°21'0 0.0
2014-Nov-25 12:33N 54°18' W 130°21'0 0.0
2014-Nov-25 11:34N 54°18' W 130°21'0 0.0
2014-Nov-25 10:34N 54°18' W 130°21'0 0.0
2014-Nov-25 09:33N 54°18' W 130°21'0 0.0
2014-Nov-25 08:34N 54°18' W 130°21'0 0.0
2014-Nov-25 07:34N 54°18' W 130°21'0 0.0
2014-Nov-25 06:34N 54°18' W 130°21'0 0.0
2014-Nov-25 05:33N 54°18' W 130°21'0 0.0
2014-Nov-25 04:33N 54°18' W 130°21'1 0.6
2014-Nov-25 03:34N 54°17' W 130°22'4 2.1
2014-Nov-25 01:33N 54°13' W 130°21'5 4.8
2014-Nov-25 00:33N 54°18' W 130°21'0 0.2
2014-Nov-24 23:33N 54°18' W 130°21'0 0.0
2014-Nov-24 22:34N 54°18' W 130°21'0 0.0
2014-Nov-24 21:34N 54°18' W 130°21'0 0.0
2014-Nov-24 20:33N 54°18' W 130°21'0 0.0
2014-Nov-24 19:34N 54°18' W 130°21'0 0.0
2014-Nov-24 18:33N 54°18' W 130°21'0 0.0
2014-Nov-24 17:33N 54°18' W 130°21'0 0.0
2014-Nov-24 16:34N 54°18' W 130°21'0 0.0
2014-Nov-24 15:33N 54°18' W 130°21'0 0.0
2014-Nov-24 14:33N 54°18' W 130°21'0 0.0
2014-Nov-24 13:33N 54°18' W 130°21'0 0.0
2014-Nov-24 12:33N 54°18' W 130°21'0 0.0
2014-Nov-24 11:34N 54°18' W 130°21'0 0.0
2014-Nov-24 10:33N 54°18' W 130°21'0 0.0
2014-Nov-24 09:33N 54°18' W 130°21'0 0.0
2014-Nov-24 08:33N 54°18' W 130°21'0 0.0
2014-Nov-24 07:33N 54°18' W 130°21'0 0.0
2014-Nov-24 06:33N 54°18' W 130°21'0 0.0
2014-Nov-24 05:33N 54°18' W 130°21'0 0.0
2014-Nov-24 04:34N 54°18' W 130°21'0 0.0
2014-Nov-24 03:33N 54°18' W 130°21'0 0.0
2014-Nov-24 02:33N 54°18' W 130°21'0 0.0
2014-Nov-24 01:34N 54°18' W 130°21'0 0.0
2014-Nov-24 00:33N 54°18' W 130°21'0 0.0
2014-Nov-23 23:33N 54°18' W 130°21'0 0.0
2014-Nov-23 22:34N 54°18' W 130°21'0 0.0
2014-Nov-23 21:34N 54°18' W 130°21'0 0.0
2014-Nov-23 20:34N 54°18' W 130°21'0 0.0
2014-Nov-23 19:33N 54°18' W 130°21'0 0.0
2014-Nov-23 18:34N 54°18' W 130°21'0 0.0
2014-Nov-23 17:34N 54°18' W 130°21'0 0.0
2014-Nov-23 16:34N 54°18' W 130°21'0 0.0
2014-Nov-23 15:33N 54°18' W 130°21'0 0.0
2014-Nov-23 14:33N 54°18' W 130°21'0 0.0
2014-Nov-23 13:34N 54°18' W 130°21'0 0.0
2014-Nov-23 12:33N 54°18' W 130°21'0 0.0
2014-Nov-23 11:34N 54°18' W 130°21'0 0.0
2014-Nov-23 10:34N 54°18' W 130°21'0 0.0
2014-Nov-23 09:34N 54°18' W 130°21'0 0.0
2014-Nov-23 08:33N 54°18' W 130°21'0 0.0
2014-Nov-23 07:34N 54°18' W 130°21'0 0.0
2014-Nov-23 06:34N 54°18' W 130°21'0 0.0
2014-Nov-23 05:34N 54°18' W 130°21'0 0.0
2014-Nov-23 04:33N 54°18' W 130°21'0 0.0
2014-Nov-23 03:34N 54°18' W 130°21'0 0.0
2014-Nov-23 02:34N 54°18' W 130°21'0 0.0
2014-Nov-23 01:34N 54°18' W 130°21'0 0.0
2014-Nov-23 00:33N 54°18' W 130°21'0 0.0
2014-Nov-22 23:33N 54°18' W 130°21'0 0.0
2014-Nov-22 22:33N 54°18' W 130°21'0 0.0
2014-Nov-22 21:34N 54°18' W 130°21'0 0.0
2014-Nov-22 20:33N 54°18' W 130°21'0 0.0
2014-Nov-22 19:34N 54°18' W 130°21'0 0.0
2014-Nov-22 18:33N 54°18' W 130°21'0 0.0
2014-Nov-22 17:33N 54°18' W 130°21'0 0.0
2014-Nov-22 04:10N 54°18' W 130°21'0 0.0
2014-Nov-22 03:34N 54°18' W 130°21'0 0.0
2014-Nov-22 02:34N 54°18' W 130°21'0 0.0
2014-Nov-22 01:34N 54°18' W 130°21'0 0.0
2014-Nov-22 00:34N 54°18' W 130°21'0 0.0
2014-Nov-21 23:33N 54°18' W 130°21'0 0.0
2014-Nov-21 22:33N 54°18' W 130°21'5 2.0
2014-Nov-21 20:13N 54°13' W 130°23'1 0.6
2014-Nov-21 19:23N 54°13' W 130°22'3 3.6
2014-Nov-21 18:33N 54°16' W 130°22'2 1.7
2014-Nov-21 17:33N 54°18' W 130°21'0 0.0
2014-Nov-21 09:34N 54°18' W 130°21'0 0.0
2014-Nov-21 08:33N 54°18' W 130°21'0 0.0
2014-Nov-21 07:33N 54°18' W 130°21'0 0.0
2014-Nov-21 06:34N 54°18' W 130°21'0 0.0
2014-Nov-21 05:33N 54°18' W 130°21'0 0.0
2014-Nov-21 04:34N 54°18' W 130°21'0 0.0
2014-Nov-21 03:34N 54°18' W 130°21'0 0.0
2014-Nov-21 02:33N 54°18' W 130°21'0 0.0
2014-Nov-21 01:34N 54°18' W 130°21'0 0.0
2014-Nov-21 00:33N 54°18' W 130°21'0 0.0
2014-Nov-20 23:33N 54°18' W 130°21'0 0.0
2014-Nov-20 22:34N 54°18' W 130°21'0 0.0
2014-Nov-20 20:04N 54°18' W 130°21'0 0.0
2014-Nov-20 19:33N 54°18' W 130°21'0 0.0
2014-Nov-20 18:33N 54°18' W 130°21'0 0.0
2014-Nov-20 17:34N 54°18' W 130°21'0 0.0
2014-Nov-20 16:34N 54°18' W 130°21'0 0.0
2014-Nov-20 15:34N 54°18' W 130°21'0 0.0
2014-Nov-20 14:34N 54°18' W 130°21'0 0.0
2014-Nov-20 13:34N 54°18' W 130°21'0 0.0
2014-Nov-20 12:34N 54°18' W 130°21'0 0.0
2014-Nov-20 11:34N 54°18' W 130°21'0 0.0
2014-Nov-20 10:33N 54°18' W 130°21'0 0.0
2014-Nov-20 09:33N 54°18' W 130°21'0 0.0
2014-Nov-20 08:34N 54°18' W 130°21'0 0.0
2014-Nov-20 07:34N 54°18' W 130°21'0 0.0
2014-Nov-20 06:33N 54°18' W 130°21'0 0.0
2014-Nov-20 05:33N 54°18' W 130°21'0 0.0
2014-Nov-20 04:34N 54°18' W 130°21'0 0.0
2014-Nov-20 03:34N 54°18' W 130°21'0 0.0
2014-Nov-20 02:33N 54°18' W 130°21'0 0.0
2014-Nov-20 01:34N 54°18' W 130°21'0 0.0
2014-Nov-20 00:34N 54°18' W 130°21'0 0.0
2014-Nov-19 23:33N 54°18' W 130°21'0 0.0
2014-Nov-19 22:34N 54°18' W 130°21'0 0.0
2014-Nov-19 21:33N 54°18' W 130°21'0 0.0
2014-Nov-19 20:33N 54°18' W 130°21'0 0.0
2014-Nov-19 19:33N 54°18' W 130°21'0 0.0
2014-Nov-19 18:33N 54°18' W 130°21'0 0.0
2014-Nov-19 17:34N 54°18' W 130°21'0 0.0
2014-Nov-19 16:34N 54°18' W 130°21'0 0.0
2014-Nov-19 02:34N 54°18' W 130°21'0 0.0
2014-Nov-19 01:34N 54°18' W 130°21'0 0.0
2014-Nov-19 00:33N 54°18' W 130°21'0 0.0
2014-Nov-18 23:33N 54°18' W 130°21'0 0.0
2014-Nov-18 22:34N 54°18' W 130°21'0 0.0
2014-Nov-18 21:33N 54°18' W 130°21'0 0.0
2014-Nov-18 20:33N 54°18' W 130°21'0 0.0
2014-Nov-18 19:34N 54°18' W 130°21'0 0.0
2014-Nov-18 18:33N 54°18' W 130°21'0 0.0
2014-Nov-18 17:34N 54°18' W 130°21'0 0.0
2014-Nov-18 16:34N 54°18' W 130°21'0 0.0
2014-Nov-18 15:34N 54°18' W 130°21'0 0.0
2014-Nov-18 09:33N 54°18' W 130°21'0 0.0
2014-Nov-18 08:33N 54°18' W 130°21'0 0.0
2014-Nov-18 07:33N 54°18' W 130°21'0 0.0
2014-Nov-18 06:33N 54°18' W 130°21'0 0.0
2014-Nov-18 05:33N 54°18' W 130°21'0 0.0
2014-Nov-18 04:33N 54°18' W 130°21'0 0.0
2014-Nov-18 03:34N 54°18' W 130°21'0 0.0
2014-Nov-18 02:34N 54°18' W 130°21'0 0.0
2014-Nov-18 01:33N 54°18' W 130°21'0 0.0
2014-Nov-17 21:34N 54°18' W 130°21'0 0.0
2014-Nov-17 20:34N 54°18' W 130°21'0 0.0
2014-Nov-17 19:34N 54°18' W 130°21'0 0.0
2014-Nov-17 18:33N 54°18' W 130°21'0 0.0
2014-Nov-17 17:34N 54°18' W 130°21'0 0.0
2014-Nov-17 16:33N 54°18' W 130°21'0 0.0
2014-Nov-17 15:34N 54°18' W 130°21'0 0.0
2014-Nov-17 14:33N 54°18' W 130°21'0 0.0
2014-Nov-17 13:34N 54°18' W 130°21'0 0.0
2014-Nov-17 12:33N 54°18' W 130°21'0 0.0
2014-Nov-17 11:33N 54°18' W 130°21'0 0.0
2014-Nov-17 10:34N 54°18' W 130°21'0 0.0
2014-Nov-17 09:33N 54°18' W 130°21'  

Dump ship's entire track history